Latest Weather Observations for Solomon Airport

IDW60801

Issued at 6:13 pm WST Sunday 16 December 2018 (issued every 10 minutes, with the page automatically refreshed every 10 minutes)

About weather observations | Map of weather stations | Latest weather observations for WA | Other Formats
Station Details ID: 505060 Name: SOLOMON AIRPORT Lat: -22.25 Lon: 117.85 Height: 611.47 m
Data from the previous 72 hours. | See also: Recent months for locations in Western Australia
Date/Time
WST
Temp
°C
App
Temp
°C
Dew
Point
°C
Rel
Hum
%
Delta-T
°C
Wind Press
QNH
hPa
Press
MSL
hPa
Rain since
9am
mm
Dir  Spd
km/h
Gust
km/h
Spd
kts
Gust
kts
16/06:00pm 30.0 23.5 0.6 15 14.6 WSW 24 33 13 18 1006.7 1001.1 0.0
16/05:30pm 31.1 23.9 0.5 14 15.3 WSW 28 37 15 20 1006.3 1000.7 0.0
16/05:00pm 31.6 24.1 0.9 14 15.5 WSW 30 41 16 22 1006.1 1000.5 0.0
16/04:30pm 32.1 25.0 1.3 14 15.7 W 28 41 15 22 1005.9 1000.3 0.0
16/04:00pm 32.3 25.8 2.4 15 15.6 WSW 26 39 14 21 1005.9 1000.3 0.0
16/03:30pm 33.1 26.7 1.0 13 16.4 WSW 24 41 13 22 1006.0 1000.4 0.0
16/03:00pm 32.9 25.4 0.9 13 16.3 W 30 52 16 28 1005.9 1000.3 0.0
16/02:58pm 33.3 25.4 1.2 13 16.4 W 32 52 17 28 1006.0 1000.4 0.0
16/02:30pm 33.3 27.9 2.2 14 16.2 W 20 33 11 18 1006.3 1000.7 0.0
16/02:00pm 33.0 26.7 3.9 16 15.6 SW 26 41 14 22 1006.7 1001.1 0.0
16/01:30pm 33.1 26.8 3.9 16 15.6 SW 26 44 14 24 1006.9 1001.3 0.0
16/01:00pm 31.7 26.7 4.5 18 14.6 SW 20 35 11 19 1007.5 1001.9 0.0
16/12:30pm 30.6 25.7 5.1 20 13.7 SW 20 35 11 19 1007.8 1002.2 0.0
16/12:00pm 30.8 26.1 6.0 21 13.6 SW 20 43 11 23 1008.1 1002.5 0.0
16/11:30am 29.6 25.3 6.9 24 12.5 SW 19 37 10 20 1008.5 1002.9 0.0
16/11:00am 29.0 24.6 7.6 26 11.9 WSW 20 32 11 17 1009.0 1003.4 0.0
16/10:30am 28.8 24.7 7.9 27 11.7 SW 19 35 10 19 1009.2 1003.6 0.0
16/10:00am 27.4 23.0 8.8 31 10.5 SW 22 30 12 16 1009.4 1003.8 0.0
16/09:30am 26.8 22.2 9.6 34 9.8 SW 24 35 13 19 1009.4 1003.8 0.0
16/09:00am 25.8 21.3 10.0 37 9.0 SW 24 35 13 19 1009.7 1004.1 0.0
16/08:30am 25.1 21.4 10.2 39 8.5 SW 20 32 11 17 1009.8 1004.2 0.0
16/08:00am 24.1 20.1 10.4 42 7.8 SW 22 32 12 17 1009.9 1004.3 0.0
16/07:30am 23.2 18.9 10.6 45 7.2 SW 24 33 13 18 1009.8 1004.2 0.0
16/07:00am 22.4 18.0 10.5 47 6.7 SW 24 32 13 17 1009.4 1003.8 0.0
16/06:30am 21.9 17.8 10.1 47 6.6 WSW 22 30 12 16 1009.1 1003.5 0.0
16/06:00am 20.8 17.8 9.1 47 6.4 WSW 15 19 8 10 1008.6 1003.0 0.0
16/05:30am 20.1 17.3 8.4 47 6.3 W 13 17 7 9 1008.3 1002.7 0.0
16/05:00am 20.7 17.1 8.4 45 6.6 WSW 17 20 9 11 1007.9 1002.3 0.0
16/04:30am 21.0 17.3 8.0 43 7.0 WSW 17 20 9 11 1007.5 1001.9 0.0
16/04:00am 21.3 18.0 7.9 42 7.2 WSW 15 19 8 10 1007.1 1001.4 0.0
16/03:30am 21.8 19.3 8.0 41 7.4 W 11 15 6 8 1006.9 1001.3 0.0
16/03:00am 22.3 19.4 8.1 40 7.7 W 13 17 7 9 1006.6 1001.0 0.0
16/02:30am 22.7 20.2 8.0 39 8.0 W 11 15 6 8 1006.6 1001.0 0.0
16/02:00am 23.3 20.8 8.2 38 8.3 W 11 13 6 7 1006.5 1000.9 0.0
16/01:30am 23.5 20.7 8.4 38 8.3 W 13 17 7 9 1006.6 1001.0 0.0
16/01:00am 24.2 20.9 8.2 36 8.8 WSW 15 19 8 10 1006.6 1001.0 0.0
16/12:30am 25.0 21.4 8.5 35 9.1 W 17 20 9 11 1006.7 1001.1 0.0
16/12:00am 25.7 22.6 8.7 34 9.5 WSW 15 22 8 12 1006.8 1001.2 0.0
 
Date/Time
WST
Temp
°C
App
Temp
°C
Dew
Point
°C
Rel
Hum
%
Delta-T
°C
Wind Press
QNH
hPa
Press
MSL
hPa
Rain since
9am
mm
Dir  Spd
km/h
Gust
km/h
Spd
kts
Gust
kts
15/11:30pm 26.2 23.3 8.2 32 10.0 W 13 17 7 9 1007.1 1001.4 0.0
15/11:00pm 26.7 23.8 8.2 31 10.3 W 13 15 7 8 1006.8 1001.2 0.0
15/10:30pm 27.2 24.2 7.6 29 10.8 W 13 17 7 9 1007.1 1001.4 0.0
15/10:00pm 27.8 24.8 7.6 28 11.2 WSW 13 15 7 8 1007.1 1001.4 0.0
15/09:30pm 28.8 25.1 7.9 27 11.7 WSW 17 22 9 12 1006.9 1001.3 0.0
15/09:00pm 29.5 25.3 7.4 25 12.3 WSW 19 24 10 13 1006.8 1001.2 0.0
15/08:30pm 30.2 26.1 6.1 22 13.1 WSW 17 22 9 12 1006.7 1001.1 0.0
15/08:00pm 31.1 26.5 5.5 20 13.9 WSW 19 28 10 15 1006.2 1000.6 0.0
15/07:30pm 32.4 27.8 5.8 19 14.6 SW 19 28 10 15 1005.9 1000.3 0.0
15/07:00pm 33.2 28.3 4.9 17 15.4 SW 20 28 11 15 1005.5 999.8 0.0
15/06:30pm 34.4 28.7 5.0 16 16.1 SW 24 32 13 17 1005.0 999.4 0.0
15/06:00pm 35.4 29.7 4.8 15 16.9 SW 24 33 13 18 1004.7 999.1 0.0
15/05:30pm 36.4 30.5 5.6 15 17.2 SW 26 35 14 19 1004.5 998.9 0.0
15/05:00pm 36.8 29.8 3.9 13 18.0 WSW 30 44 16 24 1004.2 998.5 0.0
15/04:30pm 37.5 30.9 2.1 11 18.8 SW 26 39 14 21 1004.0 998.3 0.0
15/04:00pm 38.4 31.9 2.8 11 19.3 WSW 26 39 14 21 1003.8 998.1 0.0
15/03:30pm 37.8 32.0 2.3 11 19.0 SSW 22 30 12 16 1003.9 998.2 0.0
15/03:00pm 38.8 32.9 1.7 10 19.8 W 22 35 12 19 1004.1 998.4 0.0
15/02:30pm 38.8 34.6 1.7 10 19.8 SW 13 24 7 13 1004.3 998.6 0.0
15/02:00pm 37.8 31.8 1.0 10 19.4 WSW 22 33 12 18 1004.9 999.3 0.0
15/01:30pm 37.7 31.7 0.9 10 19.2 WSW 22 37 12 20 1005.0 999.4 0.0
15/01:00pm 36.9 33.1 4.0 13 18.0 SSW 13 33 7 18 1005.6 999.9 0.0
15/12:30pm 36.6 31.8 4.8 14 17.6 WSW 19 33 10 18 1006.1 1000.5 0.0
15/12:00pm 36.1 31.2 2.2 12 18.0 WNW 17 35 9 19 1006.4 1000.8 0.0
15/11:30am 35.8 32.6 7.0 17 16.4 WSW 13 28 7 15 1006.8 1001.2 0.0
15/11:00am 34.8 31.5 6.2 17 16.0 SSW 13 28 7 15 1007.3 1001.6 0.0
15/10:34am 34.3 31.6 5.8 17 15.8 SSW 9 22 5 12 1007.6 1002.0 0.0
15/10:30am 34.0 31.2 7.1 19 15.2 S 11 22 6 12 1007.6 1002.0 0.0
15/10:15am 33.9 31.7 7.8 20 14.9 SSW 9 17 5 9 1007.9 1002.3 0.0
15/10:00am 32.9 29.9 7.7 21 14.3 SW 13 19 7 10 1008.1 1002.5 0.0
15/09:30am 31.7 28.9 8.7 24 13.2 SW 13 24 7 13 1008.6 1003.0 0.0
15/09:00am 30.6 27.3 9.5 27 12.2 SSW 17 22 9 12 1009.0 1003.4 0.0
15/08:30am 29.6 26.3 9.7 29 11.5 SW 17 24 9 13 1009.0 1003.4 0.0
15/08:00am 28.1 25.4 10.3 33 10.3 SW 15 24 8 13 1009.1 1003.5 0.0
15/07:30am 26.7 23.6 10.4 36 9.4 SW 17 22 9 12 1009.1 1003.5 0.0
15/07:00am 25.5 22.6 10.9 40 8.4 WSW 17 22 9 12 1008.9 1003.3 0.0
15/06:30am 24.1 21.7 11.4 45 7.3 WSW 15 20 8 11 1008.9 1003.3 0.0
15/06:00am 23.1 21.8 11.2 47 6.8 W 9 13 5 7 1008.6 1003.0 0.0
15/05:30am 22.5 20.6 10.6 47 6.7 W 11 15 6 8 1008.3 1002.7 0.0
15/05:00am 22.7 21.1 10.2 45 7.1 W 9 13 5 7 1008.0 1002.4 0.0
15/04:30am 23.0 21.2 9.4 42 7.6 W 9 11 5 6 1007.7 1002.1 0.0
15/04:00am 23.6 21.2 8.5 38 8.3 WSW 11 15 6 8 1007.4 1001.8 0.0
15/03:30am 24.4 21.4 7.5 34 9.2 W 13 19 7 10 1007.2 1001.5 0.0
15/03:00am 25.2 21.5 6.4 30 10.1 WSW 15 19 8 10 1006.9 1001.3 0.0
15/02:30am 25.9 22.4 5.5 27 10.8 WSW 13 19 7 10 1007.1 1001.4 0.0
15/02:00am 26.7 22.5 5.6 26 11.2 WSW 17 20 9 11 1007.1 1001.4 0.0
15/01:33am 26.9 23.1 4.0 23 11.8 SW 13 17 7 9 1007.2 1001.5 0.0
15/01:30am 26.9 23.1 4.0 23 11.8 SW 13 17 7 9 1007.2 1001.5 0.0
15/01:14am 27.3 23.8 3.7 22 12.2 WSW 11 19 6 10 1007.2 1001.5 0.0
15/01:00am 27.3 24.1 3.1 21 12.4 SW 9 17 5 9 1007.3 1001.6 0.0
15/12:30am 28.2 24.2 3.1 20 12.9 W 13 15 7 8 1007.5 1001.9 0.0
15/12:00am 29.4 25.4 2.6 18 13.8 WSW 13 19 7 10 1007.7 1002.1 0.0
 
Date/Time
WST
Temp
°C
App
Temp
°C
Dew
Point
°C
Rel
Hum
%
Delta-T
°C
Wind Press
QNH
hPa
Press
MSL
hPa
Rain since
9am
mm
Dir  Spd
km/h
Gust
km/h
Spd
kts
Gust
kts
14/11:30pm 29.7 25.6 2.1 17 14.0 W 13 15 7 8 1008.0 1002.4 0.0
14/11:00pm 30.4 26.4 2.6 17 14.4 W 13 19 7 10 1008.3 1002.7 0.0
14/10:30pm 30.1 26.0 2.4 17 14.2 W 13 17 7 9 1008.5 1002.9 0.0
14/10:00pm 30.8 27.1 2.1 16 14.7 W 11 13 6 7 1008.6 1003.0 0.0
14/09:30pm 32.7 28.1 1.7 14 16.0 WSW 15 22 8 12 1008.5 1002.9 0.0
14/09:00pm 32.7 28.1 1.7 14 16.0 WSW 15 20 8 11 1008.2 1002.6 0.0
14/08:30pm 33.3 29.4 1.2 13 16.4 SW 11 15 6 8 1008.0 1002.4 0.0
14/08:00pm 34.6 29.8 -0.1 11 17.6 W 15 20 8 11 1007.8 1002.2 0.0
14/07:30pm 35.7 29.5 -0.6 10 18.3 WSW 22 35 12 19 1007.3 1001.6 0.0
14/07:00pm 37.0 29.4 0.4 10 19.0 WSW 30 39 16 21 1006.8 1001.2 0.0
14/06:30pm 38.1 30.8 -0.3 9 19.8 WSW 28 37 15 20 1006.4 1000.8 0.0
14/06:00pm 39.5 34.3 2.2 10 20.2 NW 19 28 10 15 1006.0 1000.4 0.0
14/05:30pm 39.4 35.1 3.5 11 19.7 NNW 15 30 8 16 1006.0 1000.4 0.0
14/05:00pm 40.0 35.5 4.0 11 20.0 NW 17 30 9 16 1005.9 1000.3 0.0
14/04:30pm 39.9 35.8 6.3 13 19.3 NW 17 28 9 15 1005.9 1000.3 0.0
14/04:00pm 40.1 35.2 5.3 12 19.7 NNW 20 35 11 19 1006.1 1000.5 0.0
14/03:30pm 41.5 36.1 6.4 12 20.3 NNW 24 39 13 21 1006.2 1000.6 0.0
14/03:00pm 40.3 36.3 6.6 13 19.5 N 17 28 9 15 1006.4 1000.8 0.0
14/02:30pm 40.1 35.1 6.4 13 19.4 NW 22 39 12 21 1006.8 1001.2 0.0
14/02:00pm 40.2 35.2 6.5 13 19.4 NNW 22 41 12 22 1007.2 1001.5 0.0
14/01:30pm 39.6 36.1 7.1 14 18.8 NE 15 26 8 14 1007.7 1002.1 0.0
14/01:00pm 39.3 35.9 5.8 13 19.1 NNE 13 26 7 14 1008.1 1002.5 0.0
14/12:30pm 39.1 35.5 6.7 14 18.6 NE 15 30 8 16 1008.4 1002.8 0.0
14/12:00pm 38.0 33.5 5.9 14 18.2 N 19 33 10 18 1009.1 1003.5 0.0
14/11:30am 37.6 34.0 6.6 15 17.7 NNE 15 30 8 16 1009.4 1003.8 0.0
14/11:00am 37.1 31.3 6.2 15 17.5 NE 26 41 14 22 1009.7 1004.1 0.0
14/10:30am 36.4 31.2 5.6 15 17.2 NE 22 35 12 19 1009.9 1004.3 0.0
14/10:00am 35.8 30.7 6.1 16 16.7 NE 22 35 12 19 1010.2 1004.6 0.0
14/09:30am 34.6 28.0 6.0 17 15.9 NE 30 44 16 24 1010.2 1004.6 0.0
14/09:00am 34.1 26.8 5.6 17 15.8 ENE 33 46 18 25 1010.3 1004.7 0.0
14/08:36am 34.0 26.3 5.5 17 15.7 ENE 35 54 19 29 1010.2 1004.6 0.0
14/08:30am 33.3 25.7 5.8 18 15.2 ENE 35 50 19 27 1010.2 1004.6 0.0
14/08:00am 33.3 25.3 5.8 18 15.2 ENE 37 50 20 27 1010.2 1004.6 0.0
14/07:30am 33.1 25.8 5.6 18 15.1 E 33 46 18 25 1010.3 1004.7 0.0
14/07:16am 32.5 29.6 6.7 20 14.4 NNW 11 37 6 20 1010.6 1005.0 0.0
14/07:00am 28.5 26.6 6.6 25 12.0 SSW 6 7 3 4 1010.7 1005.1 0.0
14/06:48am 27.9 26.4 6.6 26 11.6 S 4 7 2 4 1010.6 1005.0 0.0
14/06:30am 27.2 25.7 6.6 27 11.2 SE 4 7 2 4 1010.5 1004.9 0.0
14/06:01am 26.3 25.3 7.4 30 10.3 NE 2 4 1 2 1010.2 1004.6 0.0
14/06:00am 26.3 25.3 7.4 30 10.3 NE 2 4 1 2 1010.1 1004.5 0.0
14/05:30am 25.3 24.5 6.5 30 10.1 CALM 0 2 0 1 1010.0 1004.4 0.0
14/05:00am 25.7 23.6 5.8 28 10.6 W 6 9 3 5 1009.8 1004.2 0.0
14/04:30am 25.9 23.6 5.5 27 10.8 W 7 9 4 5 1009.4 1003.8 0.0
14/04:00am 26.4 23.9 4.8 25 11.3 W 7 9 4 5 1009.3 1003.7 0.0
14/03:30am 27.1 23.4 4.2 23 11.9 W 13 15 7 8 1009.1 1003.5 0.0
14/03:00am 26.7 24.2 3.9 23 11.8 SE 6 9 3 5 1009.6 1004.0 0.0
14/02:30am 27.0 23.7 4.7 24 11.7 SSW 11 13 6 7 1009.1 1003.5 0.0
14/02:00am 26.5 23.2 2.4 21 12.1 SSW 9 13 5 7 1008.6 1003.0 0.0
14/01:30am 28.5 24.9 0.3 16 13.8 WSW 9 11 5 6 1008.5 1002.9 0.0
14/01:00am 28.1 23.8 0.8 17 13.5 WSW 13 17 7 9 1008.5 1002.9 0.0
14/12:30am 29.0 25.4 0.7 16 14.0 W 9 11 5 6 1008.8 1003.1 0.0
14/12:00am 30.1 27.2 1.5 16 14.5 WNW 6 7 3 4 1009.0 1003.4 0.0
 
Date/Time
WST
Temp
°C
App
Temp
°C
Dew
Point
°C
Rel
Hum
%
Delta-T
°C
Wind Press
QNH
hPa
Press
MSL
hPa
Rain since
9am
mm
Dir  Spd
km/h
Gust
km/h
Spd
kts
Gust
kts
13/11:30pm 30.3 27.6 2.5 17 14.3 NW 6 7 3 4 1009.4 1003.8 0.0
13/11:00pm 31.6 28.0 2.7 16 15.0 S 11 28 6 15 1009.8 1004.2 0.0
13/10:30pm 35.4 31.2 1.7 12 17.6 WNW 13 19 7 10 1009.5 1003.9 0.0
13/10:00pm 35.0 32.3 2.5 13 17.2 NW 6 11 3 6 1009.7 1004.1 0.0
13/09:30pm 35.8 31.1 3.1 13 17.5 NNW 17 22 9 12 1009.5 1003.9 0.0
13/09:00pm 36.6 31.0 3.7 13 17.9 NNW 22 32 12 17 1009.3 1003.7 0.0
13/08:36pm 37.4 30.8 4.4 13 18.2 NNW 28 37 15 20 1009.0 1003.4 0.0
13/08:30pm 37.6 31.2 3.4 12 18.6 NNW 26 37 14 20 1009.1 1003.5 0.0
13/08:22pm 38.1 32.2 3.8 12 18.8 NNW 24 35 13 19 1009.0 1003.4 0.0
13/08:00pm 39.0 31.0 1.9 10 19.9 WNW 33 52 18 28 1008.8 1003.1 0.0
13/07:43pm 38.5 30.1 1.5 10 19.6 WNW 35 54 19 29 1008.3 1002.7 0.0
13/07:30pm 38.9 31.3 0.3 9 20.1 WNW 30 43 16 23 1008.4 1002.8 0.0
13/07:00pm 39.0 33.7 1.9 10 19.9 NW 19 28 10 15 1008.2 1002.6 0.0
13/06:30pm 39.5 35.4 2.2 10 20.1 NW 13 20 7 11 1007.9 1002.3 0.0

Other Formats:

Comma delimited format used in spreadsheet applications
http://www.bom.gov.au/fwo/IDW60801/IDW60801.99217.axf

JavaScript Object Notation format (JSON) in row-major order
http://www.bom.gov.au/fwo/IDW60801/IDW60801.99217.json